sensor_id;sensor_type;location;lat;lon;timestamp;P1;durP1;ratioP1;P2;durP2;ratioP2
28587;SDS011;15787;49.662;10.162;2022-10-31T00:00:47;17.08;;;7.35;;
28587;SDS011;15787;49.662;10.162;2022-10-31T00:03:16;13.88;;;7.72;;
28587;SDS011;15787;49.662;10.162;2022-10-31T00:05:45;13.75;;;7.18;;
28587;SDS011;15787;49.662;10.162;2022-10-31T00:08:15;19.85;;;7.57;;
28587;SDS011;15787;49.662;10.162;2022-10-31T00:10:45;12.95;;;7.50;;
28587;SDS011;15787;49.662;10.162;2022-10-31T00:13:13;9.87;;;6.90;;
28587;SDS011;15787;49.662;10.162;2022-10-31T00:15:42;14.73;;;7.50;;
28587;SDS011;15787;49.662;10.162;2022-10-31T00:18:10;15.98;;;7.13;;
28587;SDS011;15787;49.662;10.162;2022-10-31T00:20:38;10.77;;;6.35;;
28587;SDS011;15787;49.662;10.162;2022-10-31T00:23:06;10.65;;;5.88;;
28587;SDS011;15787;49.662;10.162;2022-10-31T00:25:36;8.75;;;6.25;;
28587;SDS011;15787;49.662;10.162;2022-10-31T00:28:07;13.57;;;6.97;;
28587;SDS011;15787;49.662;10.162;2022-10-31T00:30:38;12.95;;;6.30;;
28587;SDS011;15787;49.662;10.162;2022-10-31T00:33:06;13.45;;;7.72;;
28587;SDS011;15787;49.662;10.162;2022-10-31T00:35:36;15.93;;;6.82;;
28587;SDS011;15787;49.662;10.162;2022-10-31T00:38:03;13.68;;;6.50;;
28587;SDS011;15787;49.662;10.162;2022-10-31T00:40:32;11.52;;;5.95;;
28587;SDS011;15787;49.662;10.162;2022-10-31T00:42:59;16.70;;;7.20;;
28587;SDS011;15787;49.662;10.162;2022-10-31T00:45:30;10.82;;;6.50;;
28587;SDS011;15787;49.662;10.162;2022-10-31T00:47:57;11.27;;;6.70;;
28587;SDS011;15787;49.662;10.162;2022-10-31T00:50:26;10.98;;;5.65;;
28587;SDS011;15787;49.662;10.162;2022-10-31T00:52:54;14.25;;;6.75;;
28587;SDS011;15787;49.662;10.162;2022-10-31T00:55:21;13.18;;;6.82;;
28587;SDS011;15787;49.662;10.162;2022-10-31T00:57:50;12.63;;;6.00;;
28587;SDS011;15787;49.662;10.162;2022-10-31T01:00:18;11.98;;;5.90;;
28587;SDS011;15787;49.662;10.162;2022-10-31T01:02:48;9.63;;;5.40;;
28587;SDS011;15787;49.662;10.162;2022-10-31T01:05:16;12.18;;;7.50;;
28587;SDS011;15787;49.662;10.162;2022-10-31T01:07:44;14.80;;;6.07;;
28587;SDS011;15787;49.662;10.162;2022-10-31T01:10:12;11.35;;;5.95;;
28587;SDS011;15787;49.662;10.162;2022-10-31T01:12:43;10.10;;;6.45;;
28587;SDS011;15787;49.662;10.162;2022-10-31T01:15:14;14.38;;;6.78;;
28587;SDS011;15787;49.662;10.162;2022-10-31T01:17:42;16.00;;;6.43;;
28587;SDS011;15787;49.662;10.162;2022-10-31T01:20:12;20.75;;;6.35;;
28587;SDS011;15787;49.662;10.162;2022-10-31T01:25:09;11.60;;;5.90;;
28587;SDS011;15787;49.662;10.162;2022-10-31T01:27:37;13.35;;;6.65;;
28587;SDS011;15787;49.662;10.162;2022-10-31T01:30:07;9.02;;;5.82;;
28587;SDS011;15787;49.662;10.162;2022-10-31T01:32:35;8.98;;;5.60;;
28587;SDS011;15787;49.662;10.162;2022-10-31T01:35:04;14.77;;;6.82;;
28587;SDS011;15787;49.662;10.162;2022-10-31T01:37:33;14.50;;;5.93;;
28587;SDS011;15787;49.662;10.162;2022-10-31T01:40:01;10.35;;;5.88;;
28587;SDS011;15787;49.662;10.162;2022-10-31T01:42:29;13.15;;;5.45;;
28587;SDS011;15787;49.662;10.162;2022-10-31T01:44:58;12.35;;;6.63;;
28587;SDS011;15787;49.662;10.162;2022-10-31T01:47:33;12.80;;;7.10;;
28587;SDS011;15787;49.662;10.162;2022-10-31T01:50:08;14.13;;;6.43;;
28587;SDS011;15787;49.662;10.162;2022-10-31T01:52:42;14.40;;;6.30;;
28587;SDS011;15787;49.662;10.162;2022-10-31T01:55:15;12.10;;;6.00;;
28587;SDS011;15787;49.662;10.162;2022-10-31T01:57:53;11.52;;;6.30;;
28587;SDS011;15787;49.662;10.162;2022-10-31T02:00:24;13.88;;;5.85;;
28587;SDS011;15787;49.662;10.162;2022-10-31T02:02:52;17.88;;;7.95;;
28587;SDS011;15787;49.662;10.162;2022-10-31T02:05:22;12.10;;;5.90;;
28587;SDS011;15787;49.662;10.162;2022-10-31T02:07:55;16.80;;;6.75;;
28587;SDS011;15787;49.662;10.162;2022-10-31T02:10:28;10.73;;;5.95;;
28587;SDS011;15787;49.662;10.162;2022-10-31T02:12:58;16.20;;;7.45;;
28587;SDS011;15787;49.662;10.162;2022-10-31T02:15:29;11.05;;;5.70;;
28587;SDS011;15787;49.662;10.162;2022-10-31T02:17:59;10.77;;;6.10;;
28587;SDS011;15787;49.662;10.162;2022-10-31T02:20:29;12.85;;;7.03;;
28587;SDS011;15787;49.662;10.162;2022-10-31T02:23:17;14.93;;;6.00;;
28587;SDS011;15787;49.662;10.162;2022-10-31T02:26:06;11.45;;;6.60;;
28587;SDS011;15787;49.662;10.162;2022-10-31T02:29:00;10.13;;;5.05;;
28587;SDS011;15787;49.662;10.162;2022-10-31T02:31:50;12.68;;;5.88;;
28587;SDS011;15787;49.662;10.162;2022-10-31T02:34:28;12.00;;;6.07;;
28587;SDS011;15787;49.662;10.162;2022-10-31T02:37:06;10.35;;;5.82;;
28587;SDS011;15787;49.662;10.162;2022-10-31T02:39:37;14.70;;;5.53;;
28587;SDS011;15787;49.662;10.162;2022-10-31T02:42:18;11.38;;;5.70;;
28587;SDS011;15787;49.662;10.162;2022-10-31T02:44:57;12.50;;;6.32;;
28587;SDS011;15787;49.662;10.162;2022-10-31T02:47:32;14.45;;;6.53;;
28587;SDS011;15787;49.662;10.162;2022-10-31T02:50:04;10.27;;;5.93;;
28587;SDS011;15787;49.662;10.162;2022-10-31T02:52:38;14.10;;;6.43;;
28587;SDS011;15787;49.662;10.162;2022-10-31T02:55:09;12.70;;;5.85;;
28587;SDS011;15787;49.662;10.162;2022-10-31T02:57:39;11.65;;;6.35;;
28587;SDS011;15787;49.662;10.162;2022-10-31T03:00:09;14.95;;;6.22;;
28587;SDS011;15787;49.662;10.162;2022-10-31T03:02:53;40.25;;;6.82;;
28587;SDS011;15787;49.662;10.162;2022-10-31T03:05:32;12.80;;;5.13;;
28587;SDS011;15787;49.662;10.162;2022-10-31T03:08:12;15.20;;;5.68;;
28587;SDS011;15787;49.662;10.162;2022-10-31T03:10:51;25.48;;;5.35;;
28587;SDS011;15787;49.662;10.162;2022-10-31T03:13:28;9.95;;;5.80;;
28587;SDS011;15787;49.662;10.162;2022-10-31T03:16:04;9.27;;;6.10;;
28587;SDS011;15787;49.662;10.162;2022-10-31T03:18:39;15.02;;;7.03;;
28587;SDS011;15787;49.662;10.162;2022-10-31T03:21:11;11.45;;;6.57;;
28587;SDS011;15787;49.662;10.162;2022-10-31T03:23:43;13.73;;;7.32;;
28587;SDS011;15787;49.662;10.162;2022-10-31T03:26:18;12.40;;;6.47;;
28587;SDS011;15787;49.662;10.162;2022-10-31T03:28:49;18.27;;;6.82;;
28587;SDS011;15787;49.662;10.162;2022-10-31T03:31:21;18.10;;;6.85;;
28587;SDS011;15787;49.662;10.162;2022-10-31T03:33:55;25.00;;;6.60;;
28587;SDS011;15787;49.662;10.162;2022-10-31T03:36:28;21.30;;;6.70;;
28587;SDS011;15787;49.662;10.162;2022-10-31T03:38:57;13.68;;;6.55;;
28587;SDS011;15787;49.662;10.162;2022-10-31T03:41:28;8.00;;;5.90;;
28587;SDS011;15787;49.662;10.162;2022-10-31T03:43:59;9.30;;;5.63;;
28587;SDS011;15787;49.662;10.162;2022-10-31T03:46:32;12.25;;;5.60;;
28587;SDS011;15787;49.662;10.162;2022-10-31T03:49:02;12.10;;;5.60;;
28587;SDS011;15787;49.662;10.162;2022-10-31T03:51:35;7.40;;;4.85;;
28587;SDS011;15787;49.662;10.162;2022-10-31T03:54:08;13.68;;;5.80;;
28587;SDS011;15787;49.662;10.162;2022-10-31T03:56:46;10.45;;;5.32;;
28587;SDS011;15787;49.662;10.162;2022-10-31T03:59:22;11.73;;;6.13;;
28587;SDS011;15787;49.662;10.162;2022-10-31T04:01:55;8.30;;;5.30;;
28587;SDS011;15787;49.662;10.162;2022-10-31T04:04:29;11.82;;;6.47;;
28587;SDS011;15787;49.662;10.162;2022-10-31T04:06:58;17.75;;;5.78;;
28587;SDS011;15787;49.662;10.162;2022-10-31T04:11:59;22.05;;;6.03;;
28587;SDS011;15787;49.662;10.162;2022-10-31T04:14:50;15.15;;;6.25;;
28587;SDS011;15787;49.662;10.162;2022-10-31T04:17:21;13.07;;;6.72;;
28587;SDS011;15787;49.662;10.162;2022-10-31T04:19:52;15.48;;;5.60;;
28587;SDS011;15787;49.662;10.162;2022-10-31T04:22:20;11.52;;;6.63;;
28587;SDS011;15787;49.662;10.162;2022-10-31T04:24:48;12.10;;;6.10;;
28587;SDS011;15787;49.662;10.162;2022-10-31T04:27:17;20.65;;;7.55;;
28587;SDS011;15787;49.662;10.162;2022-10-31T04:29:45;30.10;;;8.00;;
28587;SDS011;15787;49.662;10.162;2022-10-31T04:32:16;22.77;;;7.30;;
28587;SDS011;15787;49.662;10.162;2022-10-31T04:34:45;18.25;;;9.20;;
28587;SDS011;15787;49.662;10.162;2022-10-31T04:37:14;18.95;;;8.75;;
28587;SDS011;15787;49.662;10.162;2022-10-31T04:39:42;20.73;;;8.40;;
28587;SDS011;15787;49.662;10.162;2022-10-31T04:42:29;28.63;;;9.10;;
28587;SDS011;15787;49.662;10.162;2022-10-31T04:44:59;23.25;;;8.48;;
28587;SDS011;15787;49.662;10.162;2022-10-31T04:47:30;25.70;;;8.07;;
28587;SDS011;15787;49.662;10.162;2022-10-31T04:50:00;22.38;;;8.05;;
28587;SDS011;15787;49.662;10.162;2022-10-31T04:52:29;19.77;;;8.90;;
28587;SDS011;15787;49.662;10.162;2022-10-31T04:54:57;30.90;;;11.63;;
28587;SDS011;15787;49.662;10.162;2022-10-31T05:00:18;38.97;;;11.53;;
28587;SDS011;15787;49.662;10.162;2022-10-31T05:02:50;35.17;;;9.10;;
28587;SDS011;15787;49.662;10.162;2022-10-31T05:07:49;48.20;;;9.82;;
28587;SDS011;15787;49.662;10.162;2022-10-31T05:10:21;40.13;;;9.70;;
28587;SDS011;15787;49.662;10.162;2022-10-31T05:15:38;41.78;;;8.98;;
28587;SDS011;15787;49.662;10.162;2022-10-31T05:18:25;33.47;;;10.18;;
28587;SDS011;15787;49.662;10.162;2022-10-31T05:21:12;39.67;;;9.15;;
28587;SDS011;15787;49.662;10.162;2022-10-31T05:23:53;43.65;;;11.18;;
28587;SDS011;15787;49.662;10.162;2022-10-31T05:26:23;41.63;;;12.10;;
28587;SDS011;15787;49.662;10.162;2022-10-31T05:28:52;47.70;;;14.57;;
28587;SDS011;15787;49.662;10.162;2022-10-31T05:31:22;36.88;;;12.57;;
28587;SDS011;15787;49.662;10.162;2022-10-31T05:33:52;47.83;;;11.13;;
28587;SDS011;15787;49.662;10.162;2022-10-31T05:36:38;42.50;;;11.38;;
28587;SDS011;15787;49.662;10.162;2022-10-31T05:39:18;36.10;;;9.90;;
28587;SDS011;15787;49.662;10.162;2022-10-31T05:41:48;42.70;;;10.07;;
28587;SDS011;15787;49.662;10.162;2022-10-31T05:44:25;32.92;;;8.90;;
28587;SDS011;15787;49.662;10.162;2022-10-31T05:47:03;22.20;;;8.35;;
28587;SDS011;15787;49.662;10.162;2022-10-31T05:49:51;31.65;;;9.77;;
28587;SDS011;15787;49.662;10.162;2022-10-31T05:52:38;41.72;;;9.98;;
28587;SDS011;15787;49.662;10.162;2022-10-31T05:55:18;26.60;;;9.40;;
28587;SDS011;15787;49.662;10.162;2022-10-31T05:58:01;24.98;;;9.60;;
28587;SDS011;15787;49.662;10.162;2022-10-31T06:00:30;28.20;;;9.07;;
28587;SDS011;15787;49.662;10.162;2022-10-31T06:03:06;21.23;;;8.63;;
28587;SDS011;15787;49.662;10.162;2022-10-31T06:05:43;26.10;;;8.68;;
28587;SDS011;15787;49.662;10.162;2022-10-31T06:08:19;15.65;;;7.57;;
28587;SDS011;15787;49.662;10.162;2022-10-31T06:10:49;24.92;;;7.72;;
28587;SDS011;15787;49.662;10.162;2022-10-31T06:13:28;28.92;;;8.15;;
28587;SDS011;15787;49.662;10.162;2022-10-31T06:18:38;29.88;;;7.68;;
28587;SDS011;15787;49.662;10.162;2022-10-31T06:21:06;37.15;;;7.93;;
28587;SDS011;15787;49.662;10.162;2022-10-31T06:23:39;21.05;;;8.00;;
28587;SDS011;15787;49.662;10.162;2022-10-31T06:26:43;32.65;;;8.57;;
28587;SDS011;15787;49.662;10.162;2022-10-31T06:29:12;25.15;;;8.23;;
